Time;durP1;ratioP1;P1;durP2;ratioP2;P2;SDS_P1;SDS_P2;PMS_P1;PMS_P2;Temp;Humidity;BMP_temperature;BMP_pressure;BME280_temperature;BME280_humidity;BME280_pressure;Samples;Min_cycle;Max_cycle;Signal;HPM_P1;HPM_P2
2023/09/10 00:00:52;;;;;;;22.50;21.10;;;21.90;99.90;;;;;;4922652;29;21029;-80
2023/09/10 00:03:20;;;;;;;23.73;21.87;;;21.80;99.90;;;;;;4925509;29;20458;-80
2023/09/10 00:05:49;;;;;;;22.20;20.90;;;21.80;1.00;;;;;;4921886;29;20453;-79
2023/09/10 00:08:17;;;;;;;24.37;22.33;;;21.80;1.00;;;;;;4926758;29;20471;-82
2023/09/10 00:10:47;;;;;;;23.07;21.67;;;21.90;1.00;;;;;;4922892;29;20494;-79
2023/09/10 00:13:15;;;;;;;21.80;20.50;;;21.90;1.00;;;;;;4928013;29;20535;-80
2023/09/10 00:15:43;;;;;;;23.00;21.70;;;21.80;1.00;;;;;;4925159;29;20450;-82
2023/09/10 00:18:12;;;;;;;22.00;20.67;;;21.80;1.00;;;;;;4920964;29;20449;-78
2023/09/10 00:20:40;;;;;;;22.17;20.77;;;21.80;99.90;;;;;;4924900;29;20449;-79
2023/09/10 00:23:09;;;;;;;21.70;20.50;;;21.80;1.00;;;;;;4922348;29;20493;-82
2023/09/10 00:25:37;;;;;;;21.53;20.23;;;21.70;99.90;;;;;;4923536;29;20470;-82
2023/09/10 00:28:07;;;;;;;21.07;19.77;;;21.70;99.90;;;;;;4922670;29;20493;-80
2023/09/10 00:30:36;;;;;;;21.70;20.33;;;21.70;1.00;;;;;;4936629;28;21011;-81
2023/09/10 00:33:07;;;;;;;21.23;19.90;;;21.70;1.00;;;;;;4920833;29;20553;-81
2023/09/10 00:35:35;;;;;;;22.30;20.90;;;21.70;1.00;;;;;;4912843;29;20457;-79
2023/09/10 00:38:04;;;;;;;22.00;20.60;;;21.70;1.00;;;;;;4935723;28;21038;-81
2023/09/10 00:40:32;;;;;;;21.20;20.00;;;21.70;99.90;;;;;;4923500;29;20924;-80
2023/09/10 00:43:01;;;;;;;21.07;19.87;;;21.70;99.90;;;;;;4923166;29;20466;-78
2023/09/10 00:45:31;;;;;;;22.03;20.63;;;21.60;1.00;;;;;;4923509;29;20453;-79
2023/09/10 00:47:59;;;;;;;21.73;20.47;;;21.60;1.00;;;;;;4922906;29;20481;-84
2023/09/10 00:50:28;;;;;;;21.50;20.20;;;21.60;1.00;;;;;;4920589;29;20553;-81
2023/09/10 00:53:00;;;;;;;21.83;20.43;;;21.60;1.00;;;;;;4917353;29;20453;-80
2023/09/10 00:55:32;;;;;;;21.03;19.83;;;21.60;1.00;;;;;;4920794;29;20470;-80
2023/09/10 00:58:01;;;;;;;21.60;20.20;;;21.60;1.00;;;;;;4924503;29;20565;-80
2023/09/10 01:00:31;;;;;;;22.10;20.70;;;21.60;1.00;;;;;;4922688;29;20447;-79
2023/09/10 01:03:00;;;;;;;20.77;19.57;;;21.70;1.00;;;;;;4923630;29;20442;-79
2023/09/10 01:05:29;;;;;;;20.27;19.27;;;21.60;1.00;;;;;;4922884;29;20462;-79
2023/09/10 01:07:58;;;;;;;22.53;21.23;;;21.50;1.00;;;;;;4919661;29;20492;-81
2023/09/10 01:10:34;;;;;;;21.63;20.23;;;21.50;1.00;;;;;;4919660;29;21074;-79
2023/09/10 01:13:09;;;;;;;21.63;20.00;;;21.40;1.00;;;;;;4922273;29;20481;-82
2023/09/10 01:15:44;;;;;;;20.87;19.57;;;21.40;1.00;;;;;;4923147;29;20556;-78
2023/09/10 01:18:19;;;;;;;20.87;19.77;;;21.40;1.00;;;;;;4923615;29;20545;-81
2023/09/10 01:21:10;;;;;;;21.03;19.90;;;21.40;1.00;;;;;;4921235;29;20475;-80
2023/09/10 01:23:50;;;;;;;22.10;20.60;;;21.40;1.00;;;;;;4929224;29;20468;-79
2023/09/10 01:26:20;;;;;;;22.63;21.13;;;21.40;1.00;;;;;;4930189;29;20477;-81
2023/09/10 01:28:48;;;;;;;22.80;21.37;;;21.30;1.00;;;;;;4931112;29;20465;-79
2023/09/10 01:31:17;;;;;;;20.97;19.77;;;21.30;1.00;;;;;;4929730;29;21037;-85
2023/09/10 01:33:53;;;;;;;20.50;19.30;;;21.30;1.00;;;;;;4931604;29;20461;-79
2023/09/10 01:36:31;;;;;;;22.23;21.00;;;21.30;1.00;;;;;;4928361;28;20541;-80
2023/09/10 01:39:08;;;;;;;22.07;20.60;;;21.30;1.00;;;;;;4929312;29;20517;-82
2023/09/10 01:41:39;;;;;;;20.63;19.47;;;21.30;1.00;;;;;;4928328;29;20852;-79
2023/09/10 01:44:09;;;;;;;21.97;20.47;;;21.30;1.00;;;;;;4931038;29;21013;-81
2023/09/10 01:46:39;;;;;;;21.97;20.70;;;21.20;1.00;;;;;;4931233;29;20484;-80
2023/09/10 01:49:08;;;;;;;23.30;20.93;;;21.20;1.00;;;;;;4931798;29;20456;-80
2023/09/10 01:51:36;;;;;;;21.63;20.23;;;21.20;1.00;;;;;;4930426;29;20485;-81
2023/09/10 01:54:05;;;;;;;22.27;20.87;;;21.20;1.00;;;;;;4925797;29;20475;-79
2023/09/10 01:56:33;;;;;;;22.83;21.43;;;21.20;1.00;;;;;;4929064;29;20481;-81
2023/09/10 01:59:04;;;;;;;21.33;19.97;;;21.10;1.00;;;;;;4929096;29;20455;-77
2023/09/10 02:01:32;;;;;;;21.20;20.00;;;21.10;27.30;;;;;;4927412;29;20467;-79
2023/09/10 02:04:01;;;;;;;21.77;20.17;;;21.10;34.00;;;;;;4930574;29;20490;-79
2023/09/10 02:06:29;;;;;;;20.80;19.63;;;21.10;53.90;;;;;;4930391;29;21808;-80
2023/09/10 02:08:57;;;;;;;21.33;19.80;;;21.10;1.00;;;;;;4929096;29;20450;-80
2023/09/10 02:11:27;;;;;;;21.67;20.27;;;21.20;1.00;;;;;;4927581;28;20527;-80
2023/09/10 02:13:55;;;;;;;21.53;20.10;;;21.20;1.00;;;;;;4929370;29;20508;-80
2023/09/10 02:16:25;;;;;;;20.87;19.47;;;21.20;1.00;;;;;;4927404;29;20479;-78
2023/09/10 02:18:53;;;;;;;22.13;20.73;;;21.20;1.00;;;;;;4931160;29;20468;-78
2023/09/10 02:21:22;;;;;;;20.20;19.10;;;21.20;1.00;;;;;;4928187;29;20501;-77
2023/09/10 02:23:50;;;;;;;22.30;20.83;;;21.20;1.00;;;;;;4928210;28;20548;-78
2023/09/10 02:26:18;;;;;;;22.37;21.00;;;21.10;1.00;;;;;;4921077;29;20482;-83
2023/09/10 02:28:47;;;;;;;21.90;20.10;;;21.00;1.00;;;;;;4927833;29;20473;-80
2023/09/10 02:31:15;;;;;;;22.83;21.27;;;21.00;6.80;;;;;;4927278;29;20835;-80
2023/09/10 02:33:45;;;;;;;21.33;20.03;;;21.00;3.00;;;;;;4926102;29;20463;-80
2023/09/10 02:36:13;;;;;;;22.77;21.27;;;21.00;1.00;;;;;;4922200;29;20507;-82
2023/09/10 02:38:41;;;;;;;22.57;21.27;;;21.00;1.00;;;;;;4926324;29;20553;-81
2023/09/10 02:41:09;;;;;;;22.07;20.77;;;20.90;99.90;;;;;;4923683;29;20823;-80
2023/09/10 02:43:37;;;;;;;22.10;20.77;;;20.90;99.90;;;;;;4924518;29;20461;-78
2023/09/10 02:46:06;;;;;;;21.87;20.47;;;21.00;80.50;;;;;;4923680;29;20513;-80
2023/09/10 02:48:34;;;;;;;21.90;20.60;;;21.00;1.00;;;;;;4925263;29;20477;-82
2023/09/10 02:51:03;;;;;;;21.67;20.20;;;21.00;26.80;;;;;;4927592;29;20468;-81
2023/09/10 02:53:32;;;;;;;21.87;20.67;;;20.90;59.00;;;;;;4923482;29;20477;-81
2023/09/10 02:56:00;;;;;;;21.27;20.10;;;20.90;99.90;;;;;;4921658;29;20465;-82
2023/09/10 02:58:29;;;;;;;21.50;20.30;;;20.90;99.90;;;;;;4930293;28;20553;-77
2023/09/10 03:01:04;;;;;;;22.50;21.10;;;20.90;8.50;;;;;;4924559;29;20495;-81
2023/09/10 03:03:33;;;;;;;21.30;20.00;;;20.80;72.70;;;;;;4920207;29;20466;-78
2023/09/10 03:06:03;;;;;;;21.30;20.10;;;20.80;99.90;;;;;;4926470;29;20457;-81
2023/09/10 03:08:35;;;;;;;22.67;21.27;;;20.80;99.90;;;;;;4923668;29;20473;-77
2023/09/10 03:11:05;;;;;;;21.53;20.23;;;20.80;99.90;;;;;;4924194;29;20472;-79
2023/09/10 03:13:33;;;;;;;21.47;19.97;;;20.80;97.70;;;;;;4921445;29;20490;-79
2023/09/10 03:16:01;;;;;;;21.37;20.07;;;20.70;99.90;;;;;;4920155;29;20466;-80
2023/09/10 03:18:29;;;;;;;21.40;20.00;;;20.70;99.90;;;;;;4922672;29;20551;-75
2023/09/10 03:20:57;;;;;;;21.20;20.00;;;20.70;99.90;;;;;;4919836;29;20513;-78
2023/09/10 03:23:27;;;;;;;21.77;20.57;;;20.70;99.90;;;;;;4917229;29;21116;-79
2023/09/10 03:25:55;;;;;;;22.27;20.97;;;20.70;99.90;;;;;;4922366;29;20473;-79
2023/09/10 03:28:23;;;;;;;21.57;20.37;;;20.60;99.90;;;;;;4921909;29;20484;-80
2023/09/10 03:30:57;;;;;;;20.43;19.43;;;20.70;99.90;;;;;;4923357;29;20477;-78
2023/09/10 03:33:25;;;;;;;20.77;19.60;;;20.60;99.90;;;;;;4914948;29;20485;-79
2023/09/10 03:35:53;;;;;;;22.10;20.70;;;20.70;1.00;;;;;;4924266;29;20445;-79
2023/09/10 03:38:22;;;;;;;22.23;20.83;;;20.60;99.90;;;;;;4919946;29;20548;-79
2023/09/10 03:40:51;;;;;;;22.17;20.80;;;20.50;99.90;;;;;;4921426;29;20464;-79
2023/09/10 03:43:19;;;;;;;20.60;19.50;;;20.60;99.90;;;;;;4920485;29;20195;-81
2023/09/10 03:45:51;;;;;;;20.60;19.40;;;20.60;99.90;;;;;;4923140;29;20561;-79
2023/09/10 03:48:19;;;;;;;21.50;20.07;;;20.50;99.90;;;;;;4922159;29;20462;-81
2023/09/10 03:50:47;;;;;;;22.00;20.70;;;20.50;99.90;;;;;;4922822;29;20458;-81
2023/09/10 03:53:17;;;;;;;22.07;20.57;;;20.50;99.90;;;;;;4923793;29;21248;-79
2023/09/10 03:55:45;;;;;;;22.33;21.17;;;20.40;99.90;;;;;;4913081;29;20461;-78
2023/09/10 03:58:15;;;;;;;22.47;20.87;;;20.40;1.00;;;;;;4921567;28;20470;-79
2023/09/10 04:00:43;;;;;;;22.27;20.80;;;20.40;1.00;;;;;;4918468;29;20907;-79
2023/09/10 04:03:11;;;;;;;21.40;20.20;;;20.40;1.00;;;;;;4919639;28;20557;-77
2023/09/10 04:05:39;;;;;;;22.37;21.17;;;20.40;99.90;;;;;;4923812;29;20493;-79
2023/09/10 04:08:08;;;;;;;22.67;21.27;;;20.40;99.90;;;;;;4924050;29;21116;-80
2023/09/10 04:10:36;;;;;;;22.03;20.60;;;20.40;1.00;;;;;;4922208;29;20473;-78
2023/09/10 04:13:04;;;;;;;22.03;20.73;;;20.40;1.00;;;;;;4923401;29;20473;-82
2023/09/10 04:15:34;;;;;;;22.23;20.73;;;20.40;99.90;;;;;;4923885;29;20462;-81
2023/09/10 04:18:04;;;;;;;21.97;20.23;;;20.40;99.90;;;;;;4923858;29;20474;-80
2023/09/10 04:20:33;;;;;;;21.57;20.07;;;20.30;99.90;;;;;;4926911;29;21014;-79
2023/09/10 04:23:01;;;;;;;21.47;20.00;;;20.30;1.00;;;;;;4926530;29;20560;-80
2023/09/10 04:25:29;;;;;;;22.00;20.80;;;20.30;99.90;;;;;;4924400;29;20836;-80
2023/09/10 04:27:58;;;;;;;21.53;20.10;;;20.30;99.90;;;;;;4924299;29;20485;-79
2023/09/10 04:30:26;;;;;;;21.13;19.93;;;20.30;99.90;;;;;;4925223;29;21024;-77
2023/09/10 04:32:55;;;;;;;22.73;21.20;;;20.30;99.90;;;;;;4922524;29;20489;-77
2023/09/10 04:35:24;;;;;;;22.40;21.00;;;20.20;99.90;;;;;;4921374;29;20474;-80
2023/09/10 04:37:52;;;;;;;21.30;20.20;;;20.20;99.90;;;;;;4924586;29;20488;-80
2023/09/10 04:40:21;;;;;;;21.20;20.00;;;20.20;99.90;;;;;;4924100;29;20582;-80
2023/09/10 04:42:49;;;;;;;21.70;20.60;;;20.20;99.90;;;;;;4939444;28;20462;-81
2023/09/10 04:45:17;;;;;;;21.80;20.53;;;20.20;99.90;;;;;;4921978;29;20470;-85
2023/09/10 04:47:45;;;;;;;21.80;20.40;;;20.20;99.90;;;;;;4924064;29;20470;-81
2023/09/10 04:50:14;;;;;;;20.97;19.87;;;20.20;99.90;;;;;;4920220;29;20498;-82
2023/09/10 04:52:43;;;;;;;22.43;21.03;;;20.10;99.90;;;;;;4937471;28;20482;-81
2023/09/10 04:55:11;;;;;;;21.80;20.53;;;20.10;99.90;;;;;;4923277;29;20449;-79
2023/09/10 04:57:39;;;;;;;21.87;20.60;;;20.10;99.90;;;;;;4927168;28;20524;-84
2023/09/10 05:00:10;;;;;;;22.07;20.77;;;20.00;1.00;;;;;;4925336;29;20464;-79
2023/09/10 05:02:38;;;;;;;21.00;19.90;;;20.00;1.00;;;;;;4923666;29;20558;-79
2023/09/10 05:05:07;;;;;;;20.87;19.57;;;20.00;1.00;;;;;;4926630;29;20544;-78
2023/09/10 05:07:37;;;;;;;21.90;20.70;;;20.00;1.00;;;;;;4924052;29;20481;-78
2023/09/10 05:10:05;;;;;;;22.53;21.30;;;20.00;1.00;;;;;;4926225;29;20456;-78
2023/09/10 05:12:34;;;;;;;22.70;21.50;;;20.10;1.00;;;;;;4920267;29;20584;-82
2023/09/10 05:15:02;;;;;;;21.93;20.73;;;20.10;1.00;;;;;;4922730;29;20462;-81
2023/09/10 05:17:30;;;;;;;21.30;20.20;;;20.10;99.90;;;;;;4922469;29;21345;-80
2023/09/10 05:19:58;;;;;;;23.37;21.80;;;20.10;99.90;;;;;;4922666;29;20458;-82
2023/09/10 05:22:26;;;;;;;22.60;21.30;;;20.10;99.90;;;;;;4922602;29;20449;-79
2023/09/10 05:24:56;;;;;;;22.33;20.83;;;20.10;1.00;;;;;;4924593;29;20453;-80
2023/09/10 05:27:24;;;;;;;22.47;20.90;;;20.10;1.00;;;;;;4921623;29;20496;-80
2023/09/10 05:29:52;;;;;;;22.70;21.30;;;20.20;1.00;;;;;;4923932;29;20475;-81
2023/09/10 05:32:20;;;;;;;23.43;21.67;;;20.10;1.00;;;;;;4938499;28;20834;-79
2023/09/10 05:34:49;;;;;;;21.77;20.37;;;20.20;99.90;;;;;;4920502;29;20478;-79
2023/09/10 05:37:17;;;;;;;22.73;21.47;;;20.00;1.00;;;;;;4924463;29;21015;-79
2023/09/10 05:39:45;;;;;;;22.97;21.57;;;20.00;1.00;;;;;;4924525;29;20840;-79
2023/09/10 05:42:15;;;;;;;23.50;22.00;;;20.00;1.00;;;;;;4922852;29;20456;-79
2023/09/10 05:44:43;;;;;;;22.60;21.30;;;20.10;1.00;;;;;;4921438;29;20457;-80
2023/09/10 05:47:11;;;;;;;23.57;22.00;;;20.10;1.00;;;;;;4925812;29;20477;-80
2023/09/10 05:49:39;;;;;;;23.10;21.80;;;20.20;1.00;;;;;;4927952;29;21944;-80
2023/09/10 05:52:07;;;;;;;23.10;21.50;;;20.20;1.00;;;;;;4926857;29;20566;-81
2023/09/10 05:54:35;;;;;;;22.47;21.20;;;20.30;1.00;;;;;;4928484;29;20868;-79
2023/09/10 05:57:04;;;;;;;23.70;22.10;;;20.30;1.00;;;;;;4921627;29;20488;-79
2023/09/10 05:59:34;;;;;;;24.00;22.60;;;20.30;1.00;;;;;;4922444;29;20476;-80
2023/09/10 06:02:02;;;;;;;23.83;22.40;;;20.30;1.00;;;;;;4921250;29;20460;-80
2023/09/10 06:04:32;;;;;;;22.77;21.57;;;20.20;78.30;;;;;;4919059;29;20982;-78
2023/09/10 06:07:03;;;;;;;22.97;21.67;;;20.30;99.90;;;;;;4922829;28;20552;-79
2023/09/10 06:09:31;;;;;;;22.60;21.30;;;20.40;23.40;;;;;;4916690;29;20727;-80
2023/09/10 06:12:02;;;;;;;22.20;20.90;;;20.60;1.00;;;;;;4926974;29;20472;-81
2023/09/10 06:14:33;;;;;;;21.90;20.60;;;20.70;99.90;;;;;;4923686;29;20489;-78
2023/09/10 06:17:03;;;;;;;22.20;21.00;;;20.80;99.90;;;;;;4922370;29;20576;-80
2023/09/10 06:19:31;;;;;;;24.07;22.60;;;20.90;99.90;;;;;;4922749;29;20458;-77
2023/09/10 06:21:59;;;;;;;23.20;21.70;;;20.90;19.00;;;;;;4924858;29;20469;-79
2023/09/10 06:24:28;;;;;;;22.77;21.37;;;20.90;99.90;;;;;;4925514;29;20469;-79
2023/09/10 06:26:56;;;;;;;22.93;21.70;;;20.90;2.60;;;;;;4926056;29;20516;-78
2023/09/10 06:29:24;;;;;;;23.00;21.53;;;20.90;1.00;;;;;;4919266;29;21005;-77
2023/09/10 06:31:53;;;;;;;23.60;22.30;;;20.80;50.20;;;;;;4923678;29;20532;-75
2023/09/10 06:34:22;;;;;;;23.63;22.13;;;20.80;99.90;;;;;;4925271;29;20482;-75
2023/09/10 06:36:50;;;;;;;23.50;22.17;;;20.90;99.90;;;;;;4923351;29;20492;-80
2023/09/10 06:39:18;;;;;;;24.50;22.57;;;20.80;99.90;;;;;;4921813;29;20574;-76
2023/09/10 06:41:47;;;;;;;23.43;22.10;;;20.90;99.90;;;;;;4922149;29;20461;-76
2023/09/10 06:44:15;;;;;;;24.33;22.93;;;21.10;5.30;;;;;;4921695;29;20455;-76
2023/09/10 06:46:43;;;;;;;23.27;21.70;;;21.10;1.00;;;;;;4925788;29;20537;-77
2023/09/10 06:49:11;;;;;;;25.03;23.17;;;21.00;1.00;;;;;;4921792;29;20472;-78
2023/09/10 06:51:41;;;;;;;23.90;22.40;;;21.10;14.40;;;;;;4923604;29;20585;-77
2023/09/10 06:54:09;;;;;;;23.83;22.33;;;21.20;1.00;;;;;;4918422;29;20564;-75
2023/09/10 06:56:37;;;;;;;24.17;22.57;;;21.20;7.50;;;;;;4922162;29;20485;-76
2023/09/10 06:59:05;;;;;;;24.17;22.77;;;21.30;8.20;;;;;;4920121;29;20532;-75
2023/09/10 07:01:33;;;;;;;24.27;22.70;;;21.30;1.00;;;;;;4920699;29;20454;-76
2023/09/10 07:04:01;;;;;;;23.23;21.63;;;21.40;31.80;;;;;;4921997;29;20457;-76
2023/09/10 07:06:30;;;;;;;22.67;21.37;;;21.50;1.00;;;;;;4924915;29;21369;-76
2023/09/10 07:08:59;;;;;;;22.60;21.30;;;21.50;1.00;;;;;;4922815;29;21113;-76
2023/09/10 07:11:27;;;;;;;24.53;23.10;;;21.60;1.00;;;;;;4920442;29;21052;-75
2023/09/10 07:13:55;;;;;;;23.00;21.70;;;21.60;1.00;;;;;;4923723;29;20485;-77
2023/09/10 07:16:26;;;;;;;23.37;21.77;;;21.70;1.00;;;;;;4924983;29;20482;-79
2023/09/10 07:18:54;;;;;;;23.80;22.40;;;21.70;99.90;;;;;;4927190;29;20966;-77
2023/09/10 07:24:23;;;;;;;23.53;22.07;;;22.00;99.90;;;;;;4917960;29;20469;-80
2023/09/10 07:26:55;;;;;;;22.47;21.13;;;22.10;99.90;;;;;;4917184;29;20489;-79
2023/09/10 07:29:23;;;;;;;23.40;22.10;;;22.30;99.90;;;;;;4922226;29;20469;-80
2023/09/10 07:31:55;;;;;;;22.13;20.93;;;22.30;99.90;;;;;;4936013;28;20470;-80
2023/09/10 07:34:23;;;;;;;21.83;20.73;;;22.40;99.90;;;;;;4921114;29;20469;-79
2023/09/10 07:36:51;;;;;;;21.30;20.10;;;22.40;99.90;;;;;;4921268;29;20877;-80
2023/09/10 07:39:20;;;;;;;21.77;20.43;;;22.50;99.90;;;;;;4917688;29;22103;-80
2023/09/10 07:41:49;;;;;;;21.93;20.57;;;22.60;39.50;;;;;;4922764;29;20481;-81
2023/09/10 07:44:17;;;;;;;21.30;20.07;;;22.70;34.80;;;;;;4924127;29;20986;-79
2023/09/10 07:46:49;;;;;;;21.20;20.10;;;22.80;17.80;;;;;;4922295;28;21010;-80
2023/09/10 07:49:17;;;;;;;21.17;19.97;;;22.80;1.00;;;;;;4921061;29;20468;-80
2023/09/10 07:51:46;;;;;;;20.97;19.77;;;22.80;1.00;;;;;;4922227;29;20457;-79
2023/09/10 07:54:14;;;;;;;20.93;19.80;;;22.90;1.00;;;;;;4925532;29;20477;-80
2023/09/10 07:56:42;;;;;;;21.27;20.07;;;23.00;1.00;;;;;;4922592;29;21173;-79
2023/09/10 07:59:12;;;;;;;19.93;18.80;;;23.10;1.00;;;;;;4924835;29;20993;-80
2023/09/10 08:01:40;;;;;;;20.50;19.10;;;23.20;1.00;;;;;;4924335;29;20469;-81
2023/09/10 08:04:08;;;;;;;18.90;18.00;;;23.30;1.00;;;;;;4923660;29;20466;-80
2023/09/10 08:06:36;;;;;;;19.80;18.60;;;23.40;1.00;;;;;;4922804;29;20559;-81
2023/09/10 08:09:05;;;;;;;20.67;19.30;;;23.50;1.00;;;;;;4924895;29;20463;-81
2023/09/10 08:11:35;;;;;;;19.10;18.10;;;23.60;1.00;;;;;;4923369;29;20477;-79
2023/09/10 08:14:03;;;;;;;19.23;18.23;;;23.60;1.00;;;;;;4922158;29;20470;-83
2023/09/10 08:16:33;;;;;;;19.97;18.97;;;23.70;1.00;;;;;;4921681;29;21378;-79
2023/09/10 08:19:01;;;;;;;20.93;19.07;;;23.80;1.00;;;;;;4926736;29;21063;-80
2023/09/10 08:21:29;;;;;;;19.07;17.90;;;23.90;1.00;;;;;;4924315;29;20563;-78
2023/09/10 08:23:57;;;;;;;19.40;18.40;;;24.00;1.00;;;;;;4923877;29;20481;-81
2023/09/10 08:26:25;;;;;;;19.57;18.53;;;24.00;1.00;;;;;;4924060;29;20488;-81
2023/09/10 08:28:53;;;;;;;20.27;19.07;;;24.10;1.00;;;;;;4922032;29;20489;-80
2023/09/10 08:31:21;;;;;;;20.67;19.20;;;24.20;1.00;;;;;;4922258;29;20468;-79
2023/09/10 08:33:51;;;;;;;19.97;18.87;;;24.30;1.00;;;;;;4924703;29;20456;-83
2023/09/10 08:36:19;;;;;;;20.00;18.90;;;24.40;1.00;;;;;;4925744;29;20504;-79
2023/09/10 08:38:47;;;;;;;19.80;18.70;;;24.50;99.90;;;;;;4923314;29;20462;-81
2023/09/10 08:41:22;;;;;;;18.53;17.53;;;24.50;99.90;;;;;;4923093;29;21002;-80
2023/09/10 08:43:56;;;;;;;19.47;18.27;;;24.50;99.90;;;;;;4925043;29;20564;-81
2023/09/10 08:46:30;;;;;;;18.30;17.50;;;24.70;99.90;;;;;;4922550;29;20483;-81
2023/09/10 08:49:01;;;;;;;19.70;18.60;;;24.80;99.90;;;;;;4920701;29;20461;-83
2023/09/10 08:51:31;;;;;;;17.57;16.70;;;24.90;99.90;;;;;;4922674;29;20461;-79
2023/09/10 08:54:03;;;;;;;18.33;17.43;;;25.00;99.90;;;;;;4926811;29;20458;-80
2023/09/10 08:56:32;;;;;;;17.63;16.90;;;25.00;99.90;;;;;;4923864;29;20489;-82
2023/09/10 08:59:04;;;;;;;19.00;17.97;;;25.10;99.90;;;;;;4923209;29;20459;-81
2023/09/10 09:01:34;;;;;;;18.43;17.53;;;25.10;99.90;;;;;;4921759;29;20454;-83
2023/09/10 09:04:04;;;;;;;19.03;17.70;;;25.20;99.90;;;;;;4920873;29;20472;-80
2023/09/10 09:06:34;;;;;;;18.10;17.20;;;25.30;99.90;;;;;;4926611;29;20493;-81
2023/09/10 09:09:06;;;;;;;18.47;17.67;;;25.40;99.90;;;;;;4925492;29;20517;-78
2023/09/10 09:11:37;;;;;;;19.43;18.00;;;25.50;99.90;;;;;;4921406;29;20472;-81
2023/09/10 09:14:09;;;;;;;20.33;19.23;;;25.50;99.90;;;;;;4921420;29;20454;-81
2023/09/10 09:16:40;;;;;;;18.10;17.30;;;25.60;99.90;;;;;;4918894;29;20685;-79
2023/09/10 09:19:12;;;;;;;19.53;18.33;;;25.70;99.90;;;;;;4922491;29;20529;-80
2023/09/10 09:21:41;;;;;;;19.23;18.10;;;25.70;99.90;;;;;;4921283;29;20465;-81
2023/09/10 09:24:13;;;;;;;17.90;16.90;;;25.70;99.90;;;;;;4923316;28;20833;-82
2023/09/10 09:26:41;;;;;;;19.27;18.00;;;25.80;99.90;;;;;;4923609;29;20492;-80
2023/09/10 09:29:10;;;;;;;19.63;18.33;;;25.80;99.90;;;;;;4922866;29;21059;-85
2023/09/10 09:31:38;;;;;;;18.67;17.53;;;26.00;99.90;;;;;;4922124;29;20462;-81
2023/09/10 09:34:06;;;;;;;18.00;17.10;;;26.10;99.90;;;;;;4921512;29;20860;-81
2023/09/10 09:36:42;;;;;;;18.50;17.60;;;26.10;99.90;;;;;;4920536;29;20524;-80
2023/09/10 09:39:11;;;;;;;19.40;18.30;;;26.10;99.90;;;;;;4923362;29;20509;-82
2023/09/10 09:41:41;;;;;;;18.83;17.63;;;26.20;99.90;;;;;;4922007;29;20461;-82
2023/09/10 09:44:09;;;;;;;18.83;17.97;;;26.20;99.90;;;;;;4926298;29;20836;-81
2023/09/10 09:46:37;;;;;;;18.37;17.40;;;26.30;99.90;;;;;;4924374;29;20477;-80
2023/09/10 09:49:09;;;;;;;18.40;17.53;;;26.30;99.90;;;;;;4928462;29;20458;-80
2023/09/10 09:51:40;;;;;;;19.13;18.13;;;26.40;99.90;;;;;;4924884;29;20453;-81
2023/09/10 09:54:09;;;;;;;19.27;18.00;;;26.60;99.90;;;;;;4925013;29;20990;-80
2023/09/10 09:56:37;;;;;;;19.10;18.10;;;26.50;99.90;;;;;;4924973;29;20576;-82
2023/09/10 09:59:06;;;;;;;19.13;18.03;;;26.60;99.90;;;;;;4924555;29;20516;-79
2023/09/10 10:01:36;;;;;;;18.53;17.60;;;26.70;99.90;;;;;;4927695;29;20990;-84
2023/09/10 10:04:05;;;;;;;19.87;18.87;;;26.70;99.90;;;;;;4925142;29;20475;-80
2023/09/10 10:06:36;;;;;;;17.30;16.50;;;26.60;99.90;;;;;;4924528;29;20488;-79
2023/09/10 10:09:19;;;;;;;19.90;18.70;;;26.60;99.90;;;;;;4924404;29;20469;-83
2023/09/10 10:11:48;;;;;;;18.23;17.33;;;26.60;99.90;;;;;;4908532;29;20461;-81
2023/09/10 10:14:20;;;;;;;18.43;17.37;;;26.60;99.90;;;;;;4912492;29;21021;-81
2023/09/10 10:16:51;;;;;;;16.90;16.10;;;26.70;99.90;;;;;;4921921;29;20621;-82
2023/09/10 10:19:21;;;;;;;17.87;16.53;;;26.60;99.90;;;;;;4925527;29;20469;-83
2023/09/10 10:21:55;;;;;;;17.17;16.37;;;26.60;99.90;;;;;;4927098;29;20555;-82
2023/09/10 10:24:25;;;;;;;17.43;16.40;;;26.60;99.90;;;;;;4924439;28;21014;-82
2023/09/10 10:26:55;;;;;;;17.33;16.33;;;26.70;99.90;;;;;;4925679;29;20542;-81
2023/09/10 10:29:24;;;;;;;17.03;16.33;;;26.80;99.90;;;;;;4928553;29;20470;-80
2023/09/10 10:34:56;;;;;;;18.17;17.10;;;27.00;99.90;;;;;;4945178;28;20548;-82
2023/09/10 10:37:35;;;;;;;18.00;17.10;;;26.90;99.90;;;;;;4924414;29;20577;-81
2023/09/10 10:40:12;;;;;;;17.40;16.60;;;27.00;99.90;;;;;;4923019;29;20480;-82
2023/09/10 10:42:49;;;;;;;17.60;16.70;;;27.00;99.90;;;;;;4919075;29;20469;-79
2023/09/10 10:45:34;;;;;;;17.00;16.30;;;27.00;99.90;;;;;;4925524;29;20489;-81
2023/09/10 10:48:15;;;;;;;17.80;16.93;;;26.90;99.90;;;;;;4928894;29;20477;-79
2023/09/10 10:50:52;;;;;;;20.47;19.20;;;27.10;99.90;;;;;;4923408;29;20532;-81
2023/09/10 10:53:23;;;;;;;18.67;17.57;;;27.10;99.90;;;;;;4923229;29;21173;-81
2023/09/10 10:56:08;;;;;;;;;;;;;;;;;;;;;
2023/09/10 10:58:41;;;;;;;17.30;16.50;;;27.20;99.90;;;;;;4925772;29;21121;-79
2023/09/10 11:01:12;;;;;;;17.50;16.60;;;27.20;99.90;;;;;;4924933;29;20468;-81
2023/09/10 11:07:34;;;;;;;17.70;16.80;;;27.20;99.90;;;;;;4937590;23;20499;-81
2023/09/10 11:10:40;;;;;;;17.73;16.83;;;27.30;99.90;;;;;;4985471;28;20467;-82
2023/09/10 11:13:12;;;;;;;17.27;16.37;;;27.40;99.90;;;;;;4985722;28;20537;-80
2023/09/10 11:16:21;;;;;;;17.63;16.63;;;27.50;99.90;;;;;;4979784;28;20965;-83
2023/09/10 11:18:51;;;;;;;18.73;17.73;;;27.50;99.90;;;;;;4962464;28;20895;-82
2023/09/10 11:21:21;;;;;;;18.00;17.03;;;27.50;99.90;;;;;;4961021;28;20515;-82
2023/09/10 11:24:26;;;;;;;16.60;15.90;;;27.50;99.90;;;;;;4960416;28;21420;-80
2023/09/10 11:27:19;;;;;;;17.20;16.30;;;27.60;99.90;;;;;;4964991;28;21008;-82
2023/09/10 11:30:11;;;;;;;17.00;16.17;;;27.60;99.90;;;;;;4966760;28;20562;-81
2023/09/10 11:32:40;;;;;;;18.03;17.00;;;27.60;99.90;;;;;;4966093;28;20517;-82
2023/09/10 11:35:23;;;;;;;17.67;16.60;;;27.70;99.90;;;;;;4966736;28;20467;-81
2023/09/10 11:37:53;;;;;;;17.20;16.40;;;27.70;99.90;;;;;;4962290;28;20887;-82
2023/09/10 11:40:22;;;;;;;17.03;16.20;;;27.70;99.90;;;;;;4966254;28;20559;-81
2023/09/10 11:42:51;;;;;;;16.67;15.87;;;27.80;99.90;;;;;;4965117;28;20481;-82
2023/09/10 11:45:20;;;;;;;17.40;16.40;;;27.90;99.90;;;;;;4966950;28;20461;-81
2023/09/10 11:47:50;;;;;;;18.10;17.00;;;27.90;99.90;;;;;;4961895;28;20476;-80
2023/09/10 11:50:23;;;;;;;16.93;16.03;;;28.00;99.90;;;;;;4966106;28;20457;-80
2023/09/10 11:52:52;;;;;;;17.63;16.70;;;27.90;99.90;;;;;;4966141;28;20465;-81
2023/09/10 11:55:21;;;;;;;17.40;16.50;;;28.00;99.90;;;;;;4961699;28;20494;-81
2023/09/10 11:57:50;;;;;;;17.63;16.70;;;28.00;99.90;;;;;;4965408;28;20477;-81
2023/09/10 12:00:45;;;;;;;17.03;16.23;;;28.10;99.90;;;;;;4959245;28;20473;-79
2023/09/10 12:03:23;;;;;;;17.60;16.57;;;28.10;99.90;;;;;;4960323;28;20488;-82
2023/09/10 12:05:51;;;;;;;17.60;16.47;;;28.10;99.90;;;;;;4963485;28;21041;-78
2023/09/10 12:08:31;;;;;;;17.47;16.53;;;28.10;99.90;;;;;;4964254;28;20474;-78
2023/09/10 12:11:06;;;;;;;17.30;16.13;;;28.10;99.90;;;;;;4960670;28;20573;-84
2023/09/10 12:13:43;;;;;;;16.47;15.63;;;28.20;99.90;;;;;;4963683;28;20489;-79
2023/09/10 12:16:14;;;;;;;17.80;16.73;;;28.30;99.90;;;;;;4961449;28;20463;-79
2023/09/10 12:18:52;;;;;;;16.90;16.00;;;28.20;99.90;;;;;;4962540;28;20827;-82
2023/09/10 12:21:20;;;;;;;16.57;15.77;;;28.20;99.90;;;;;;4963182;28;20466;-81
2023/09/10 12:23:49;;;;;;;16.23;15.53;;;28.30;99.90;;;;;;4958331;28;20464;-81
2023/09/10 12:26:19;;;;;;;17.40;16.50;;;28.20;99.90;;;;;;4960131;28;20729;-80
2023/09/10 12:28:59;;;;;;;16.47;15.70;;;28.20;99.90;;;;;;4963633;28;20494;-81
2023/09/10 12:31:28;;;;;;;17.43;16.40;;;28.20;99.90;;;;;;4963113;28;20469;-80
2023/09/10 12:33:58;;;;;;;16.40;15.40;;;28.30;99.90;;;;;;4963635;28;20476;-80
2023/09/10 12:36:27;;;;;;;17.43;16.63;;;28.30;99.90;;;;;;4962885;28;20481;-81
2023/09/10 12:39:17;;;;;;;16.50;15.60;;;28.20;99.90;;;;;;4964636;28;20484;-81
2023/09/10 12:41:49;;;;;;;15.70;15.00;;;28.20;99.90;;;;;;4964155;28;20517;-79
2023/09/10 12:44:20;;;;;;;16.80;16.10;;;28.20;99.90;;;;;;4964302;28;20470;-82
2023/09/10 12:47:02;;;;;;;17.10;16.20;;;28.30;99.90;;;;;;4963282;28;20572;-81
2023/09/10 12:49:33;;;;;;;17.80;16.80;;;28.20;99.90;;;;;;4961656;28;20458;-80
2023/09/10 12:52:01;;;;;;;16.60;15.90;;;28.20;99.90;;;;;;4964239;28;20467;-81
2023/09/10 12:54:30;;;;;;;18.20;17.30;;;28.20;99.90;;;;;;4960161;28;20457;-80
2023/09/10 12:57:02;;;;;;;17.30;16.40;;;28.10;99.90;;;;;;4964061;28;21215;-80
2023/09/10 12:59:31;;;;;;;17.07;15.90;;;28.20;99.90;;;;;;4964428;28;20454;-82